ADDS METAR Data INFO
IDs: Format: Raw Decoded Include TAF

Data at: 0024 UTC 11 Dec 2017

KPHX 102351Z 07010KT 10SM FEW120 BKN210 OVC250 24/M13 A3014 RMK AO2 SLP194 T02391133 10256 20228 56009
KPHX 102251Z 06011KT 10SM SCT210 OVC250 24/M13 A3014 RMK AO2 SLP195 T02441133
KPHX 102151Z 05012KT 10SM SCT210 OVC250 25/M13 A3015 RMK AO2 SLP196 T02501133
KPHX 102051Z 05012KT 10SM SCT210 BKN250 25/M13 A3017 RMK AO2 SLP203 T02501128 58033
KPHX 101951Z 07012KT 10SM FEW210 BKN250 24/M12 A3020 RMK AO2 SLP215 T02391117
KPHX 101851Z 07014KT 10SM FEW210 BKN250 23/M12 A3023 RMK AO2 SLP227 T02331117
KPHX 101751Z 08015KT 10SM FEW210 BKN250 23/M11 A3027 RMK AO2 SLP237 T02281106 10228 20156 50004
KPHX 101651Z 07013KT 10SM FEW210 BKN250 21/M10 A3027 RMK AO2 SLP240 T02061100
KPHX 101551Z 07014KT 10SM FEW210 BKN250 18/M10 A3027 RMK AO2 SLP239 T01831100
KPHX 101451Z 07012KT 10SM SCT210 BKN250 17/M11 A3025 RMK AO2 SLP236 T01671106 53010
KPHX 101351Z 07010KT 10SM BKN250 17/M10 A3024 RMK AO2 SLP232 T01671100
KPHX 101251Z 07011KT 10SM BKN250 17/M11 A3023 RMK AO2 SLP227 T01671106
KPHX 101151Z 06013KT 10SM SCT250 17/M11 A3022 RMK AO2 SLP223 T01721106 10194 20172 58001
KPHX 101051Z 06012KT 10SM SCT250 18/M11 A3022 RMK AO2 SLP223 T01781106
KPHX 100951Z COR 06013KT 10SM SCT250 18/M11 A3023 RMK AO2 SLP226 T01781106
KPHX 100851Z 06015KT 10SM BKN250 18/M09 A3023 RMK AO2 SLP224 T01831094 58004
KPHX 100751Z 06014KT 10SM BKN250 18/M09 A3023 RMK AO2 SLP227 T01831089
KPHX 100651Z 06014KT 10SM BKN250 19/M08 A3024 RMK AO2 SLP230 T01891083 402440061
KPHX 100551Z 05013KT 10SM BKN250 19/M08 A3024 RMK AO2 SLP230 T01891078 10233 20161 53008
KPHX 100451Z 07013KT 10SM BKN250 18/M08 A3022 RMK AO2 SLP227 T01831078
KPHX 100351Z 09006KT 10SM SCT250 BKN290 18/M07 A3022 RMK AO2 SLP228 T01781072
KPHX 100251Z 07009KT 10SM SCT250 BKN290 19/M08 A3021 RMK AO2 SLP226 T01891083 53009
KPHX 100151Z 07010KT 10SM SCT250 BKN290 20/M09 A3020 RMK AO2 SLP221 T02001089
KPHX 100051Z 07011KT 10SM SCT250 BKN290 21/M09 A3019 RMK AO2 SLP216 T02111089
KPHX 092351Z 05007KT 10SM SCT250 BKN290 23/M08 A3019 RMK AO2 SLP215 T02331083 10244 20167 56013
KPHX 092251Z 08007KT 10SM SCT250 BKN290 24/M09 A3019 RMK AO2 SLP214 T02441094
KPHX 092151Z 06007KT 10SM SCT250 BKN290 24/M10 A3020 RMK AO2 SLP217 T02441100
KPHX 092051Z 07008KT 10SM SCT250 23/M10 A3023 RMK AO2 SLP227 T02331100 58034
KPHX 091951Z 08011KT 10SM SCT250 22/M11 A3026 RMK AO2 SLP240 T02221106
KPHX 091851Z 06009KT 10SM FEW200 SCT250 21/M11 A3030 RMK AO2 SLP252 T02111106
KPHX 091751Z 00000KT 10SM FEW200 SCT250 17/M06 A3033 RMK AO2 SLP265 T01671061 10167 20061 50000
KPHX 091651Z 00000KT 10SM FEW200 FEW250 13/M06 A3035 RMK AO2 SLP272 T01281056
KPHX 091551Z 13004KT 10SM FEW200 FEW250 09/M06 A3033 RMK AO2 SLP267 T00941056
KPHX 091451Z 10005KT 10SM FEW200 FEW250 07/M05 A3033 RMK AO2 SLP267 T00671050 53010
KPHX 091351Z 10004KT 10SM FEW150 FEW250 07/M06 A3031 RMK AO2 SLP260 T00671056
KPHX 091251Z 11004KT 10SM CLR 07/M06 A3031 RMK AO2 SLP258 T00671056